createdAt,value
2018-04-26T00:12:24.276Z,0.00
2018-04-26T00:13:24.217Z,0.00
2018-04-26T00:14:24.167Z,0.00
2018-04-26T00:15:24.129Z,0.00
2018-04-26T00:16:24.079Z,0.00
2018-04-26T00:17:24.031Z,0.00
2018-04-26T00:18:23.986Z,0.00
2018-04-26T00:19:23.939Z,0.00
2018-04-26T00:20:23.896Z,0.00
2018-04-26T00:21:23.853Z,0.00
2018-04-26T00:22:23.806Z,0.00
2018-04-26T00:23:23.761Z,0.00
2018-04-26T00:24:23.724Z,0.00
2018-04-26T00:25:23.671Z,0.00
2018-04-26T00:26:23.633Z,0.00
2018-04-26T00:27:23.586Z,0.00
2018-04-26T00:28:23.546Z,0.00
2018-04-26T00:29:23.506Z,0.00
2018-04-26T00:30:23.461Z,0.00
2018-04-26T00:31:23.413Z,0.00
2018-04-26T00:32:23.377Z,0.00
2018-04-26T00:33:23.328Z,0.00
2018-04-26T00:34:23.293Z,0.00
2018-04-26T00:35:23.243Z,0.00
2018-04-26T00:36:23.206Z,0.00
2018-04-26T00:37:23.160Z,0.00
2018-04-26T00:38:23.114Z,0.00
2018-04-26T00:39:23.071Z,0.00
2018-04-26T00:40:23.029Z,0.00
2018-04-26T00:41:22.983Z,0.00
2018-04-26T00:42:22.944Z,0.00
2018-04-26T00:43:22.901Z,0.00
2018-04-26T00:44:22.857Z,0.00
2018-04-26T00:45:22.877Z,0.00
2018-04-26T00:46:22.777Z,0.00
2018-04-26T00:47:22.735Z,0.00
2018-04-26T00:48:22.693Z,0.00
2018-04-26T00:49:22.647Z,0.00
2018-04-26T00:50:22.609Z,0.00
2018-04-26T00:51:22.562Z,0.00
2018-04-26T00:52:22.515Z,0.00
2018-04-26T00:53:22.476Z,0.00
2018-04-26T00:54:22.438Z,0.00
2018-04-26T00:55:22.391Z,0.00
2018-04-26T00:56:22.360Z,0.00
2018-04-26T00:57:22.308Z,0.00
2018-04-26T00:58:22.262Z,0.00
2018-04-26T00:59:22.227Z,0.00
2018-04-26T01:00:22.186Z,0.00
2018-04-26T01:01:22.137Z,0.00
2018-04-26T01:02:22.096Z,0.00
2018-04-26T01:03:22.060Z,0.00
2018-04-26T01:04:22.010Z,0.00
2018-04-26T01:05:21.967Z,0.00
2018-04-26T01:06:21.926Z,0.00
2018-04-26T01:07:21.888Z,0.00
2018-04-26T01:08:21.838Z,0.00
2018-04-26T01:09:21.801Z,0.00
2018-04-26T01:10:21.754Z,0.00
2018-04-26T01:11:21.713Z,0.00
2018-04-26T01:12:21.671Z,0.00
2018-04-26T01:13:21.628Z,0.00
2018-04-26T01:14:21.587Z,0.00
2018-04-26T01:15:21.542Z,0.00
2018-04-26T01:16:21.503Z,0.00
2018-04-26T01:17:21.457Z,0.00
2018-04-26T01:18:21.416Z,0.00
2018-04-26T01:19:21.371Z,0.00
2018-04-26T01:20:21.329Z,0.00
2018-04-26T01:21:21.333Z,0.00
2018-04-26T01:22:21.246Z,0.00
2018-04-26T01:23:21.213Z,0.00
2018-04-26T01:24:21.178Z,0.00
2018-04-26T01:25:21.119Z,0.00
2018-04-26T01:26:21.078Z,0.00
2018-04-26T01:27:21.033Z,0.00
2018-04-26T01:28:20.994Z,0.00
2018-04-26T01:29:20.947Z,0.00
2018-04-26T01:30:20.908Z,0.00
2018-04-26T01:31:20.871Z,0.00
2018-04-26T01:32:20.825Z,0.00
2018-04-26T01:33:20.782Z,0.00
2018-04-26T01:34:20.738Z,0.00
2018-04-26T01:35:20.696Z,0.00
2018-04-26T01:36:20.659Z,0.00
2018-04-26T01:37:20.615Z,0.00
2018-04-26T01:38:20.569Z,0.00
2018-04-26T01:39:20.528Z,0.00
2018-04-26T01:40:20.508Z,0.00
2018-04-26T01:41:20.441Z,0.00
2018-04-26T01:42:20.401Z,0.00
2018-04-26T01:43:20.357Z,0.00
2018-04-26T01:44:20.314Z,0.00
2018-04-26T01:45:20.272Z,0.00
2018-04-26T01:46:20.228Z,0.00
2018-04-26T01:47:20.188Z,0.00
2018-04-26T01:48:20.150Z,0.00
2018-04-26T01:49:20.100Z,0.00
2018-04-26T01:50:20.062Z,0.00
2018-04-26T01:51:20.033Z,0.00
2018-04-26T01:52:20.020Z,0.00
2018-04-26T01:53:19.936Z,0.00
2018-04-26T01:54:19.892Z,0.00
2018-04-26T01:55:19.847Z,0.00
2018-04-26T01:56:19.807Z,0.00
2018-04-26T01:57:19.769Z,0.00
2018-04-26T01:58:19.722Z,0.00
2018-04-26T01:59:19.678Z,0.00
2018-04-26T02:00:19.639Z,0.00
2018-04-26T02:01:19.596Z,0.00
2018-04-26T02:02:19.553Z,0.00
2018-04-26T02:03:19.509Z,0.00
2018-04-26T02:04:19.464Z,0.00
2018-04-26T02:05:19.427Z,0.00
2018-04-26T02:06:19.387Z,0.00
2018-04-26T02:07:19.343Z,0.00
2018-04-26T02:08:19.303Z,0.00
2018-04-26T02:09:19.256Z,0.00
2018-04-26T02:10:19.212Z,0.00
2018-04-26T02:11:19.172Z,0.00
2018-04-26T02:12:19.126Z,0.00
2018-04-26T02:13:19.084Z,0.00
2018-04-26T02:14:19.046Z,0.00
2018-04-26T02:15:19.006Z,0.00
2018-04-26T02:16:18.958Z,0.00
2018-04-26T02:17:18.918Z,0.00
2018-04-26T02:18:18.877Z,0.00
2018-04-26T02:19:18.834Z,0.00
2018-04-26T02:20:18.791Z,0.00
2018-04-26T02:21:18.746Z,0.00
2018-04-26T02:22:18.704Z,0.00
2018-04-26T02:23:18.671Z,0.00
2018-04-26T02:24:18.617Z,0.00
2018-04-26T02:25:18.575Z,0.00
2018-04-26T02:26:18.538Z,0.00
2018-04-26T02:27:18.498Z,0.00
2018-04-26T02:28:18.457Z,0.00
2018-04-26T02:29:18.411Z,0.00
2018-04-26T02:30:18.366Z,0.00
2018-04-26T02:31:18.323Z,0.00
2018-04-26T02:32:18.280Z,0.00
2018-04-26T02:33:18.237Z,0.00
2018-04-26T02:34:18.201Z,0.00
2018-04-26T02:35:18.155Z,0.00
2018-04-26T02:36:18.112Z,0.00
2018-04-26T02:37:18.080Z,0.00
2018-04-26T02:38:18.026Z,0.00
2018-04-26T02:39:17.984Z,0.00
2018-04-26T02:40:17.943Z,0.00
2018-04-26T02:41:17.898Z,0.00
2018-04-26T02:42:17.855Z,0.00
2018-04-26T02:43:17.816Z,0.00
2018-04-26T02:44:17.771Z,0.00
2018-04-26T02:45:17.729Z,0.00
2018-04-26T02:46:17.696Z,0.00
2018-04-26T02:47:17.642Z,0.00
2018-04-26T02:48:17.602Z,0.00
2018-04-26T02:49:17.564Z,0.00
2018-04-26T02:50:17.518Z,0.00
2018-04-26T02:51:17.479Z,0.00
2018-04-26T02:52:17.438Z,0.00
2018-04-26T02:53:17.478Z,0.00
2018-04-26T02:54:17.346Z,0.00
2018-04-26T02:55:17.305Z,0.00
2018-04-26T02:56:17.263Z,0.00
2018-04-26T02:57:17.220Z,0.00
2018-04-26T02:58:17.185Z,0.00
2018-04-26T02:59:17.160Z,0.00
2018-04-26T03:00:17.091Z,0.00
2018-04-26T03:01:17.054Z,0.00
2018-04-26T03:02:17.009Z,0.00
2018-04-26T03:03:16.968Z,0.00
2018-04-26T03:04:16.923Z,0.00
2018-04-26T03:05:16.881Z,0.00
2018-04-26T03:06:16.836Z,0.00
2018-04-26T03:07:16.801Z,0.00
2018-04-26T03:08:16.824Z,0.00
2018-04-26T03:09:16.709Z,0.00
2018-04-26T03:10:16.675Z,0.00
2018-04-26T03:11:16.623Z,0.00
2018-04-26T03:12:16.584Z,0.00
2018-04-26T03:13:16.543Z,0.00
2018-04-26T03:14:16.496Z,0.00
2018-04-26T03:15:16.460Z,0.00
2018-04-26T03:16:16.412Z,0.00
2018-04-26T03:17:16.379Z,0.00
2018-04-26T03:18:16.331Z,0.00
2018-04-26T03:19:16.297Z,0.00
2018-04-26T03:20:16.244Z,0.00
2018-04-26T03:21:16.206Z,0.00
2018-04-26T03:22:16.158Z,0.00
2018-04-26T03:23:16.119Z,0.00
2018-04-26T03:24:16.074Z,0.00
2018-04-26T03:25:16.031Z,0.00
2018-04-26T03:26:15.992Z,0.00
2018-04-26T03:27:15.947Z,0.00
2018-04-26T03:28:15.904Z,0.00
2018-04-26T03:29:15.866Z,0.00
2018-04-26T03:30:15.839Z,0.00
2018-04-26T03:31:15.802Z,0.00
2018-04-26T03:32:15.738Z,0.00
2018-04-26T03:33:15.694Z,0.00
2018-04-26T03:34:15.655Z,0.00
2018-04-26T03:35:15.613Z,0.00
2018-04-26T03:36:15.565Z,0.00
2018-04-26T03:37:15.526Z,0.00
2018-04-26T03:38:15.482Z,0.00
2018-04-26T03:39:15.446Z,0.00
2018-04-26T03:40:15.391Z,0.00
2018-04-26T03:41:15.358Z,0.00
2018-04-26T03:42:15.311Z,0.00
2018-04-26T03:43:15.267Z,0.00
2018-04-26T03:44:15.230Z,0.00
2018-04-26T03:45:15.183Z,0.00
2018-04-26T03:46:15.139Z,0.00
2018-04-26T03:47:15.098Z,0.00
2018-04-26T03:48:15.053Z,0.00
2018-04-26T03:49:15.014Z,0.00
2018-04-26T03:50:14.970Z,0.00
2018-04-26T03:51:14.952Z,0.00
2018-04-26T03:52:14.882Z,0.00
2018-04-26T03:53:14.851Z,0.00
2018-04-26T03:54:14.803Z,0.00
2018-04-26T03:55:14.759Z,0.00
2018-04-26T03:56:14.727Z,0.00
2018-04-26T03:57:14.680Z,0.00
2018-04-26T03:58:14.636Z,0.00
2018-04-26T03:59:14.599Z,0.00
2018-04-26T04:00:14.546Z,0.00
2018-04-26T04:01:14.512Z,0.00
2018-04-26T04:02:14.462Z,0.00
2018-04-26T04:03:14.417Z,0.00
2018-04-26T04:04:14.377Z,0.00
2018-04-26T04:05:14.336Z,0.00
2018-04-26T04:06:14.297Z,0.00
2018-04-26T04:07:14.250Z,0.00
2018-04-26T04:08:14.205Z,0.00
2018-04-26T04:09:14.164Z,0.00
2018-04-26T04:10:14.124Z,0.00
2018-04-26T04:11:14.079Z,0.00
2018-04-26T04:12:14.036Z,0.00
2018-04-26T04:13:13.999Z,0.00
2018-04-26T04:14:13.950Z,0.00
2018-04-26T04:15:13.910Z,0.00
2018-04-26T04:16:13.878Z,0.00
2018-04-26T04:17:13.824Z,0.00
2018-04-26T04:18:13.782Z,0.00
2018-04-26T04:19:13.738Z,0.00
2018-04-26T04:20:13.702Z,0.00
2018-04-26T04:21:13.655Z,0.00
2018-04-26T04:22:13.618Z,0.00
2018-04-26T04:23:13.574Z,0.00
2018-04-26T04:24:13.529Z,0.00
2018-04-26T04:25:13.482Z,0.00
2018-04-26T04:26:13.443Z,0.00
2018-04-26T04:27:13.398Z,0.00
2018-04-26T04:28:13.363Z,0.00
2018-04-26T04:29:13.313Z,0.00
2018-04-26T04:30:13.273Z,0.00
2018-04-26T04:31:13.229Z,0.00
2018-04-26T04:32:13.188Z,0.00
2018-04-26T04:33:13.144Z,0.00
2018-04-26T04:34:13.105Z,0.00
2018-04-26T04:35:13.112Z,0.00
2018-04-26T04:36:13.021Z,0.00
2018-04-26T04:37:12.973Z,0.00
2018-04-26T04:38:12.929Z,0.00
2018-04-26T04:39:12.890Z,4.00
2018-04-26T04:40:12.843Z,0.00
2018-04-26T04:41:12.804Z,4.00
2018-04-26T04:42:12.765Z,4.00
2018-04-26T04:43:12.716Z,4.00
2018-04-26T04:44:12.683Z,4.00
2018-04-26T04:45:12.682Z,4.00
2018-04-26T04:46:12.591Z,4.00
2018-04-26T04:47:12.548Z,4.00
2018-04-26T04:48:12.506Z,8.00
2018-04-26T04:49:12.464Z,0.00
2018-04-26T04:50:12.422Z,4.00
2018-04-26T04:51:12.384Z,8.00
2018-04-26T04:52:12.341Z,4.00
2018-04-26T04:53:12.299Z,8.00
2018-04-26T04:54:12.253Z,8.00
2018-04-26T04:55:12.213Z,8.00
2018-04-26T04:56:12.172Z,8.00
2018-04-26T04:57:12.129Z,8.00
2018-04-26T04:58:12.080Z,8.00
2018-04-26T04:59:12.043Z,8.00
2018-04-26T05:00:11.999Z,12.00
2018-04-26T05:01:11.955Z,8.00
2018-04-26T05:02:11.919Z,8.00
2018-04-26T05:03:11.874Z,12.00
2018-04-26T05:04:11.827Z,8.00
2018-04-26T05:05:11.787Z,12.00
2018-04-26T05:06:11.743Z,8.00
2018-04-26T05:07:11.703Z,12.00
2018-04-26T05:08:11.656Z,12.00
2018-04-26T05:09:11.621Z,16.00
2018-04-26T05:10:11.572Z,16.00
2018-04-26T05:11:11.554Z,12.00
2018-04-26T05:12:11.484Z,16.00
2018-04-26T05:13:11.459Z,12.00
2018-04-26T05:14:11.411Z,16.00
2018-04-26T05:15:11.445Z,16.00
2018-04-26T05:16:11.383Z,12.00
2018-04-26T05:17:11.423Z,8.00
2018-04-26T05:18:11.249Z,8.00
2018-04-26T05:19:11.230Z,12.00
2018-04-26T05:20:11.143Z,16.00
2018-04-26T05:21:11.112Z,16.00
2018-04-26T05:22:11.075Z,16.00
2018-04-26T05:23:11.018Z,16.00
2018-04-26T05:24:10.982Z,16.00
2018-04-26T05:25:10.936Z,20.00
2018-04-26T05:26:10.899Z,20.00
2018-04-26T05:27:10.847Z,20.00
2018-04-26T05:28:10.817Z,20.00
2018-04-26T05:29:10.765Z,20.00
2018-04-26T05:30:10.733Z,20.00
2018-04-26T05:31:10.679Z,24.00
2018-04-26T05:32:10.649Z,20.00
2018-04-26T05:33:10.594Z,16.00
2018-04-26T05:34:10.561Z,20.00
2018-04-26T05:35:10.510Z,20.00
2018-04-26T05:36:10.469Z,20.00
2018-04-26T05:37:10.424Z,8.00
2018-04-26T05:38:10.396Z,4.00
2018-04-26T05:39:10.340Z,4.00
2018-04-26T05:40:10.303Z,4.00
2018-04-26T05:41:10.258Z,4.00
2018-04-26T05:42:10.221Z,0.00
2018-04-26T05:43:10.169Z,0.00
2018-04-26T05:44:10.131Z,4.00
2018-04-26T05:45:10.117Z,4.00
2018-04-26T05:46:10.058Z,4.00
2018-04-26T05:47:10.000Z,4.00
2018-04-26T05:48:09.957Z,4.00
2018-04-26T05:49:09.915Z,4.00
2018-04-26T05:50:09.872Z,4.00
2018-04-26T05:51:09.836Z,4.00
2018-04-26T05:52:09.792Z,0.00
2018-04-26T05:53:09.747Z,0.00
2018-04-26T05:54:09.706Z,0.00
2018-04-26T05:55:09.664Z,0.00
2018-04-26T05:56:09.631Z,0.00
2018-04-26T05:57:09.583Z,0.00
2018-04-26T05:58:09.535Z,0.00
2018-04-26T05:59:09.493Z,4.00
2018-04-26T06:00:09.450Z,4.00
2018-04-26T06:01:09.408Z,4.00
2018-04-26T06:02:09.368Z,4.00
2018-04-26T06:03:09.325Z,4.00
2018-04-26T06:04:09.277Z,4.00
2018-04-26T06:05:09.267Z,4.00
2018-04-26T06:06:09.196Z,4.00
2018-04-26T06:07:09.153Z,4.00
2018-04-26T06:08:09.112Z,0.00
2018-04-26T06:09:09.071Z,0.00
2018-04-26T06:10:09.030Z,0.00
2018-04-26T06:11:08.987Z,0.00
2018-04-26T06:12:09.012Z,0.00
2018-04-26T06:13:08.901Z,0.00
2018-04-26T06:14:08.879Z,4.00
2018-04-26T06:15:08.811Z,4.00
2018-04-26T06:16:08.770Z,4.00
2018-04-26T06:17:08.750Z,4.00
2018-04-26T06:18:08.692Z,4.00
2018-04-26T06:19:08.642Z,4.00
2018-04-26T06:20:08.611Z,4.00
2018-04-26T06:21:08.558Z,4.00
2018-04-26T06:22:08.514Z,4.00
2018-04-26T06:23:08.478Z,0.00
2018-04-26T06:24:08.433Z,0.00
2018-04-26T06:25:08.440Z,0.00
2018-04-26T06:26:08.361Z,0.00
2018-04-26T06:27:08.302Z,0.00
2018-04-26T06:28:08.263Z,0.00
2018-04-26T06:29:08.219Z,0.00
2018-04-26T06:30:08.182Z,0.00
2018-04-26T06:31:08.153Z,0.00
2018-04-26T06:32:08.090Z,0.00
2018-04-26T06:33:08.046Z,0.00
2018-04-26T06:34:08.005Z,4.00
2018-04-26T06:35:07.985Z,4.00
2018-04-26T06:36:07.929Z,4.00
2018-04-26T06:37:07.881Z,4.00
2018-04-26T06:38:07.835Z,4.00
2018-04-26T06:39:07.791Z,4.00
2018-04-26T06:40:07.757Z,4.00
2018-04-26T06:41:07.705Z,4.00
2018-04-26T06:42:07.681Z,4.00
2018-04-26T06:43:07.622Z,4.00
2018-04-26T06:44:07.586Z,4.00
2018-04-26T06:45:07.544Z,4.00
2018-04-26T06:46:07.492Z,4.00
2018-04-26T06:47:07.449Z,4.00
2018-04-26T06:48:07.411Z,4.00
2018-04-26T06:49:07.387Z,4.00
2018-04-26T06:50:07.323Z,4.00
2018-04-26T06:51:07.307Z,4.00
2018-04-26T06:52:07.239Z,4.00
2018-04-26T06:53:07.217Z,4.00
2018-04-26T06:54:07.154Z,4.00
2018-04-26T06:55:07.111Z,4.00
2018-04-26T06:56:07.068Z,4.00
2018-04-26T06:57:07.025Z,4.00
2018-04-26T06:58:06.984Z,4.00
2018-04-26T06:59:06.953Z,4.00
2018-04-26T07:00:06.896Z,4.00
2018-04-26T07:01:06.861Z,4.00
2018-04-26T07:02:06.812Z,4.00
2018-04-26T07:03:06.769Z,4.00
2018-04-26T07:04:06.724Z,4.00
2018-04-26T07:05:06.691Z,4.00
2018-04-26T07:06:06.638Z,4.00
2018-04-26T07:07:06.606Z,4.00
2018-04-26T07:08:06.555Z,4.00
2018-04-26T07:09:06.514Z,4.00
2018-04-26T07:10:06.472Z,4.00
2018-04-26T07:11:06.429Z,4.00
2018-04-26T07:12:06.455Z,4.00
2018-04-26T07:13:06.340Z,4.00
2018-04-26T07:14:06.302Z,4.00
2018-04-26T07:15:06.257Z,4.00
2018-04-26T07:16:06.213Z,4.00
2018-04-26T07:17:06.173Z,4.00
2018-04-26T07:18:06.125Z,4.00
2018-04-26T07:19:06.087Z,4.00
2018-04-26T07:20:06.060Z,4.00
2018-04-26T07:21:06.004Z,4.00
2018-04-26T07:22:05.962Z,4.00
2018-04-26T07:23:05.915Z,0.00
2018-04-26T07:24:05.876Z,0.00
2018-04-26T07:25:05.827Z,4.00
2018-04-26T07:26:05.787Z,4.00
2018-04-26T07:27:05.748Z,4.00
2018-04-26T07:28:05.718Z,4.00
2018-04-26T07:29:05.676Z,4.00
2018-04-26T07:30:05.618Z,4.00
2018-04-26T07:31:05.576Z,4.00
2018-04-26T07:32:05.529Z,4.00
2018-04-26T07:33:05.487Z,4.00
2018-04-26T07:34:05.454Z,4.00
2018-04-26T07:35:05.408Z,4.00
2018-04-26T07:36:05.368Z,8.00
2018-04-26T07:37:05.357Z,4.00
2018-04-26T07:38:05.277Z,8.00
2018-04-26T07:39:05.250Z,4.00
2018-04-26T07:40:05.223Z,4.00
2018-04-26T07:41:05.152Z,8.00
2018-04-26T07:42:05.103Z,4.00
2018-04-26T07:43:05.062Z,8.00
2018-04-26T07:44:05.021Z,4.00
2018-04-26T07:45:04.974Z,4.00
2018-04-26T07:46:04.937Z,8.00
2018-04-26T07:47:04.899Z,4.00
2018-04-26T07:48:04.849Z,8.00
2018-04-26T07:49:04.808Z,8.00
2018-04-26T07:50:04.766Z,8.00
2018-04-26T07:51:04.738Z,8.00
2018-04-26T07:52:04.686Z,8.00
2018-04-26T07:53:04.715Z,8.00
2018-04-26T07:54:04.594Z,8.00
2018-04-26T07:55:04.555Z,8.00
2018-04-26T07:56:04.510Z,12.00
2018-04-26T07:57:04.465Z,8.00
2018-04-26T07:58:04.429Z,24.00
2018-04-26T07:59:04.389Z,8.00
2018-04-26T08:00:04.347Z,8.00
2018-04-26T08:01:04.293Z,4.00
2018-04-26T08:02:04.250Z,8.00
2018-04-26T08:03:04.206Z,4.00
2018-04-26T08:04:04.170Z,8.00
2018-04-26T08:05:04.126Z,8.00
2018-04-26T08:06:04.083Z,8.00
2018-04-26T08:07:04.040Z,8.00
2018-04-26T08:08:03.994Z,4.00
2018-04-26T08:09:03.957Z,8.00
2018-04-26T08:10:03.920Z,8.00
2018-04-26T08:11:03.868Z,4.00
2018-04-26T08:12:03.825Z,4.00
2018-04-26T08:13:03.782Z,4.00
2018-04-26T08:14:03.737Z,4.00
2018-04-26T08:15:03.693Z,32.00
2018-04-26T08:16:03.655Z,20.00
2018-04-26T08:17:03.610Z,8.00
2018-04-26T08:18:03.589Z,8.00
2018-04-26T08:19:03.527Z,12.00
2018-04-26T08:20:03.488Z,20.00
2018-04-26T08:21:03.439Z,12.00
2018-04-26T08:22:03.423Z,8.00
2018-04-26T08:23:03.359Z,12.00
2018-04-26T08:24:03.326Z,8.00
2018-04-26T08:25:03.343Z,16.00
2018-04-26T08:26:03.227Z,28.00
2018-04-26T08:27:03.188Z,8.00
2018-04-26T08:28:03.153Z,8.00
2018-04-26T08:29:03.099Z,8.00
2018-04-26T08:30:03.065Z,12.00
2018-04-26T08:31:03.013Z,8.00
2018-04-26T08:32:03.003Z,8.00
2018-04-26T08:33:02.928Z,8.00
2018-04-26T08:34:02.889Z,4.00
2018-04-26T08:35:02.852Z,8.00
2018-04-26T08:36:02.815Z,8.00
2018-04-26T08:37:02.776Z,4.00
2018-04-26T08:38:02.719Z,8.00
2018-04-26T08:39:02.671Z,28.00
2018-04-26T08:40:02.634Z,8.00
2018-04-26T08:41:02.593Z,32.00
2018-04-26T08:42:02.547Z,28.00
2018-04-26T08:43:02.519Z,28.00
2018-04-26T08:44:02.457Z,32.00
2018-04-26T08:45:02.414Z,24.00
2018-04-26T08:46:02.370Z,28.00
2018-04-26T08:47:02.338Z,28.00
2018-04-26T08:48:02.286Z,8.00
2018-04-26T08:49:02.244Z,28.00
2018-04-26T08:50:02.222Z,28.00
2018-04-26T08:51:02.160Z,24.00
2018-04-26T08:52:02.131Z,28.00
2018-04-26T08:53:02.080Z,28.00
2018-04-26T08:54:02.041Z,28.00
2018-04-26T08:55:01.998Z,28.00
2018-04-26T08:56:01.945Z,28.00
2018-04-26T08:57:01.902Z,28.00
2018-04-26T08:58:01.861Z,28.00
2018-04-26T08:59:01.841Z,28.00
2018-04-26T09:00:01.777Z,28.00
2018-04-26T09:01:01.729Z,32.00
2018-04-26T09:02:01.687Z,8.00
2018-04-26T09:03:01.648Z,8.00
2018-04-26T09:04:01.603Z,12.00
2018-04-26T09:05:01.563Z,28.00
2018-04-26T09:06:01.519Z,28.00
2018-04-26T09:07:01.478Z,28.00
2018-04-26T09:08:01.432Z,24.00
2018-04-26T09:09:01.389Z,28.00
2018-04-26T09:10:01.350Z,28.00
2018-04-26T09:11:01.302Z,28.00
2018-04-26T09:12:01.264Z,28.00
2018-04-26T09:13:01.214Z,28.00
2018-04-26T09:14:01.182Z,28.00
2018-04-26T09:15:01.131Z,28.00
2018-04-26T09:16:01.092Z,28.00
2018-04-26T09:17:01.048Z,28.00
2018-04-26T09:18:01.017Z,28.00
2018-04-26T09:19:00.961Z,28.00
2018-04-26T09:20:00.921Z,20.00
2018-04-26T09:21:00.881Z,16.00
2018-04-26T09:22:00.881Z,24.00
2018-04-26T09:23:00.794Z,28.00
2018-04-26T09:24:00.763Z,24.00
2018-04-26T09:25:00.706Z,28.00
2018-04-26T09:26:00.664Z,24.00
2018-04-26T09:27:00.636Z,24.00
2018-04-26T09:28:00.633Z,28.00
2018-04-26T09:29:00.612Z,28.00
2018-04-26T09:30:00.543Z,12.00
2018-04-26T09:31:00.451Z,24.00
2018-04-26T09:32:00.408Z,24.00
2018-04-26T09:33:00.363Z,8.00
2018-04-26T09:34:00.329Z,8.00
2018-04-26T09:35:00.283Z,24.00
2018-04-26T09:36:00.251Z,12.00
2018-04-26T09:37:00.207Z,8.00
2018-04-26T09:38:00.152Z,16.00
2018-04-26T09:39:00.112Z,24.00
2018-04-26T09:40:00.067Z,24.00
2018-04-26T09:41:00.027Z,24.00
2018-04-26T09:41:59.986Z,8.00
2018-04-26T09:42:59.943Z,24.00
2018-04-26T09:43:59.897Z,24.00
2018-04-26T09:44:59.856Z,20.00
2018-04-26T09:45:59.812Z,24.00
2018-04-26T09:46:59.768Z,20.00
2018-04-26T09:47:59.726Z,20.00
2018-04-26T09:48:59.687Z,20.00
2018-04-26T09:49:59.640Z,20.00
2018-04-26T09:50:59.604Z,20.00
2018-04-26T09:51:59.554Z,20.00
2018-04-26T09:52:59.517Z,16.00
2018-04-26T09:53:59.476Z,20.00
2018-04-26T09:54:59.428Z,16.00
2018-04-26T09:55:59.392Z,16.00
2018-04-26T09:56:59.350Z,20.00
2018-04-26T09:57:59.296Z,20.00
2018-04-26T09:58:59.254Z,20.00
2018-04-26T09:59:59.217Z,16.00
2018-04-26T10:00:59.173Z,8.00
2018-04-26T10:01:59.136Z,8.00
2018-04-26T10:02:59.086Z,16.00
2018-04-26T10:03:59.051Z,16.00
2018-04-26T10:04:58.997Z,8.00
2018-04-26T10:05:58.957Z,16.00
2018-04-26T10:06:58.914Z,16.00
2018-04-26T10:07:58.871Z,16.00
2018-04-26T10:08:58.835Z,16.00
2018-04-26T10:09:58.789Z,16.00
2018-04-26T10:10:58.752Z,16.00
2018-04-26T10:11:58.706Z,12.00
2018-04-26T10:12:58.662Z,16.00
2018-04-26T10:13:58.613Z,4.00
2018-04-26T10:14:58.591Z,4.00
2018-04-26T10:15:58.543Z,8.00
2018-04-26T10:16:58.541Z,4.00
2018-04-26T10:17:58.448Z,4.00
2018-04-26T10:18:58.400Z,8.00
2018-04-26T10:19:58.368Z,8.00
2018-04-26T10:20:58.317Z,8.00
2018-04-26T10:21:58.276Z,4.00
2018-04-26T10:22:58.230Z,8.00
2018-04-26T10:23:58.188Z,8.00
2018-04-26T10:24:58.150Z,8.00
2018-04-26T10:25:58.106Z,8.00
2018-04-26T10:26:58.061Z,12.00
2018-04-26T10:27:58.023Z,16.00
2018-04-26T10:28:57.974Z,12.00
2018-04-26T10:29:58.019Z,12.00
2018-04-26T10:30:57.892Z,8.00
2018-04-26T10:31:57.851Z,4.00
2018-04-26T10:32:57.808Z,4.00
2018-04-26T10:33:57.780Z,8.00
2018-04-26T10:34:57.732Z,12.00
2018-04-26T10:35:57.683Z,16.00
2018-04-26T10:36:57.634Z,16.00
2018-04-26T10:37:57.589Z,8.00
2018-04-26T10:38:57.548Z,8.00
2018-04-26T10:39:57.514Z,16.00
2018-04-26T10:40:57.466Z,12.00
2018-04-26T10:41:57.437Z,8.00
2018-04-26T10:42:57.378Z,12.00
2018-04-26T10:43:57.360Z,12.00
2018-04-26T10:44:57.294Z,12.00
2018-04-26T10:45:57.248Z,12.00
2018-04-26T10:46:57.206Z,12.00
2018-04-26T10:47:57.166Z,12.00
2018-04-26T10:48:57.123Z,12.00
2018-04-26T10:49:57.081Z,12.00
2018-04-26T10:50:57.040Z,12.00
2018-04-26T10:51:56.990Z,12.00
2018-04-26T10:52:56.959Z,12.00
2018-04-26T10:53:56.916Z,12.00
2018-04-26T10:54:56.865Z,12.00
2018-04-26T10:55:56.824Z,12.00
2018-04-26T10:56:56.782Z,12.00
2018-04-26T10:57:56.745Z,12.00
2018-04-26T10:58:56.694Z,12.00
2018-04-26T10:59:56.650Z,12.00
2018-04-26T11:00:56.609Z,12.00
2018-04-26T11:01:56.565Z,12.00
2018-04-26T11:02:56.528Z,12.00
2018-04-26T11:03:56.481Z,12.00
2018-04-26T11:04:56.437Z,8.00
2018-04-26T11:05:56.394Z,12.00
2018-04-26T11:06:56.351Z,12.00
2018-04-26T11:07:56.312Z,8.00
2018-04-26T11:08:56.265Z,12.00
2018-04-26T11:09:56.222Z,12.00
2018-04-26T11:10:56.182Z,12.00
2018-04-26T11:11:56.143Z,12.00
2018-04-26T11:12:56.116Z,12.00
2018-04-26T11:13:56.063Z,12.00
2018-04-26T11:14:56.014Z,12.00
2018-04-26T11:15:55.966Z,12.00
2018-04-26T11:16:55.928Z,8.00
2018-04-26T11:17:55.882Z,8.00
2018-04-26T11:18:55.839Z,8.00
2018-04-26T11:19:55.802Z,8.00
2018-04-26T11:20:55.759Z,8.00
2018-04-26T11:21:55.717Z,8.00
2018-04-26T11:22:55.668Z,8.00
2018-04-26T11:23:55.624Z,8.00
2018-04-26T11:24:55.583Z,8.00
2018-04-26T11:25:55.538Z,12.00
2018-04-26T11:26:55.497Z,12.00
2018-04-26T11:27:55.454Z,12.00
2018-04-26T11:28:55.415Z,12.00
2018-04-26T11:29:55.374Z,12.00
2018-04-26T11:30:55.415Z,12.00
2018-04-26T11:31:55.289Z,8.00
2018-04-26T11:32:55.240Z,8.00
2018-04-26T11:33:55.197Z,8.00
2018-04-26T11:34:55.174Z,8.00
2018-04-26T11:35:55.112Z,8.00
2018-04-26T11:36:55.069Z,8.00
2018-04-26T11:37:55.028Z,8.00
2018-04-26T11:38:55.023Z,8.00
2018-04-26T11:39:54.939Z,12.00
2018-04-26T11:40:54.900Z,12.00
2018-04-26T11:41:54.852Z,8.00
2018-04-26T11:42:54.818Z,8.00
2018-04-26T11:43:54.775Z,8.00
2018-04-26T11:44:54.728Z,8.00
2018-04-26T11:45:54.696Z,12.00
2018-04-26T11:46:54.660Z,8.00
2018-04-26T11:47:54.606Z,12.00
2018-04-26T11:48:54.564Z,8.00
2018-04-26T11:49:54.517Z,8.00
2018-04-26T11:50:54.473Z,8.00
2018-04-26T11:51:54.439Z,8.00
2018-04-26T11:52:54.386Z,8.00
2018-04-26T11:53:54.343Z,8.00
2018-04-26T11:54:54.306Z,12.00
2018-04-26T11:55:54.257Z,8.00
2018-04-26T11:56:54.225Z,8.00
2018-04-26T11:57:54.174Z,8.00
2018-04-26T11:58:54.129Z,8.00
2018-04-26T11:59:54.087Z,8.00
2018-04-26T12:00:54.046Z,8.00
2018-04-26T12:01:54.001Z,8.00
2018-04-26T12:02:54.122Z,8.00
2018-04-26T12:03:53.916Z,8.00
2018-04-26T12:04:53.877Z,8.00
2018-04-26T12:05:53.829Z,8.00
2018-04-26T12:06:53.787Z,8.00
2018-04-26T12:07:53.746Z,8.00
2018-04-26T12:08:53.701Z,8.00
2018-04-26T12:09:53.658Z,8.00
2018-04-26T12:10:53.614Z,8.00
2018-04-26T12:11:53.572Z,4.00
2018-04-26T12:12:53.567Z,4.00
2018-04-26T12:13:53.489Z,8.00
2018-04-26T12:14:53.452Z,4.00
2018-04-26T12:15:53.408Z,4.00
2018-04-26T12:16:53.365Z,8.00
2018-04-26T12:17:53.317Z,8.00
2018-04-26T12:18:53.281Z,8.00
2018-04-26T12:19:53.235Z,8.00
2018-04-26T12:20:53.191Z,8.00
2018-04-26T12:21:53.142Z,8.00
2018-04-26T12:22:53.104Z,8.00
2018-04-26T12:23:53.063Z,8.00
2018-04-26T12:24:53.027Z,4.00
2018-04-26T12:25:52.974Z,4.00
2018-04-26T12:26:52.937Z,4.00
2018-04-26T12:27:52.890Z,8.00
2018-04-26T12:28:52.847Z,8.00
2018-04-26T12:29:52.802Z,4.00
2018-04-26T12:30:52.766Z,8.00
2018-04-26T12:31:52.723Z,4.00
2018-04-26T12:32:52.675Z,4.00
2018-04-26T12:33:52.633Z,4.00
2018-04-26T12:34:52.590Z,4.00
2018-04-26T12:35:52.580Z,8.00
2018-04-26T12:36:52.505Z,8.00
2018-04-26T12:37:52.463Z,8.00
2018-04-26T12:38:52.419Z,8.00
2018-04-26T12:39:52.379Z,8.00
2018-04-26T12:40:52.331Z,4.00
2018-04-26T12:41:52.290Z,4.00
2018-04-26T12:42:52.247Z,4.00
2018-04-26T12:43:52.205Z,4.00
2018-04-26T12:44:52.161Z,4.00
2018-04-26T12:45:52.116Z,4.00
2018-04-26T12:46:52.074Z,4.00
2018-04-26T12:47:52.028Z,4.00
2018-04-26T12:48:51.988Z,4.00
2018-04-26T12:49:51.955Z,4.00
2018-04-26T12:50:51.903Z,4.00
2018-04-26T12:51:51.858Z,4.00
2018-04-26T12:52:51.833Z,4.00
2018-04-26T12:53:51.795Z,4.00
2018-04-26T12:54:51.735Z,4.00
2018-04-26T12:55:51.690Z,4.00
2018-04-26T12:56:51.645Z,8.00
2018-04-26T12:57:51.601Z,4.00
2018-04-26T12:58:51.564Z,4.00
2018-04-26T12:59:51.517Z,4.00
2018-04-26T13:00:51.474Z,4.00
2018-04-26T13:01:51.436Z,4.00
2018-04-26T13:02:51.391Z,4.00
2018-04-26T13:03:51.346Z,8.00
2018-04-26T13:04:51.393Z,8.00
2018-04-26T13:05:51.285Z,4.00
2018-04-26T13:06:51.227Z,8.00
2018-04-26T13:07:51.241Z,8.00
2018-04-26T13:08:51.132Z,8.00
2018-04-26T13:09:51.091Z,8.00
2018-04-26T13:10:51.047Z,4.00
2018-04-26T13:11:51.004Z,4.00
2018-04-26T13:12:50.972Z,8.00
2018-04-26T13:13:50.919Z,8.00
2018-04-26T13:14:50.874Z,4.00
2018-04-26T13:15:50.859Z,4.00
2018-04-26T13:16:50.791Z,4.00
2018-04-26T13:17:50.751Z,4.00
2018-04-26T13:18:50.705Z,4.00
2018-04-26T13:19:50.666Z,4.00
2018-04-26T13:20:50.618Z,4.00
2018-04-26T13:21:50.579Z,4.00
2018-04-26T13:22:50.533Z,4.00
2018-04-26T13:23:50.524Z,4.00